createdAt,value
2022-10-22T00:00:41.309Z,13.80
2022-10-22T00:03:08.364Z,13.90
2022-10-22T00:05:35.442Z,13.70
2022-10-22T00:08:02.559Z,13.70
2022-10-22T00:10:29.558Z,13.80
2022-10-22T00:12:56.469Z,13.60
2022-10-22T00:15:23.536Z,13.60
2022-10-22T00:17:50.460Z,13.60
2022-10-22T00:20:17.527Z,13.50
2022-10-22T00:22:44.558Z,13.60
2022-10-22T00:25:11.529Z,13.50
2022-10-22T00:27:38.597Z,13.40
2022-10-22T00:30:06.129Z,13.40
2022-10-22T00:32:33.126Z,13.50
2022-10-22T00:35:00.133Z,13.40
2022-10-22T00:37:27.244Z,13.30
2022-10-22T00:39:54.192Z,13.30
2022-10-22T00:42:24.676Z,13.30
2022-10-22T00:45:06.238Z,13.30
2022-10-22T00:47:44.283Z,13.30
2022-10-22T00:50:35.325Z,13.20
2022-10-22T00:53:04.451Z,13.20
2022-10-22T00:55:33.038Z,13.20
2022-10-22T00:58:01.387Z,13.30
2022-10-22T01:00:28.635Z,13.40
2022-10-22T01:02:55.958Z,13.30
2022-10-22T01:05:26.317Z,13.20
2022-10-22T01:07:54.211Z,13.20
2022-10-22T01:10:46.398Z,13.20
2022-10-22T01:13:49.236Z,13.30
2022-10-22T01:16:43.100Z,13.30
2022-10-22T01:19:21.726Z,13.20
2022-10-22T01:21:58.989Z,13.20
2022-10-22T01:24:29.147Z,13.20
2022-10-22T01:27:22.339Z,13.20
2022-10-22T01:29:58.173Z,13.10
2022-10-22T01:32:27.004Z,13.10
2022-10-22T01:35:08.240Z,13.20
2022-10-22T01:37:58.303Z,13.10
2022-10-22T01:40:26.365Z,13.10
2022-10-22T01:43:01.422Z,13.00
2022-10-22T01:45:37.111Z,13.30
2022-10-22T01:48:04.780Z,13.40
2022-10-22T01:50:49.866Z,13.20
2022-10-22T01:53:53.173Z,13.10
2022-10-22T01:56:41.061Z,13.00
2022-10-22T01:59:34.707Z,12.90
2022-10-22T02:02:15.535Z,12.90
2022-10-22T02:04:55.696Z,13.00
2022-10-22T02:07:27.092Z,12.90
2022-10-22T02:09:56.271Z,13.00
2022-10-22T02:12:25.602Z,13.00
2022-10-22T02:14:54.715Z,13.00
2022-10-22T02:17:22.768Z,12.90
2022-10-22T02:20:03.536Z,12.90
2022-10-22T02:22:30.699Z,13.10
2022-10-22T02:24:57.710Z,13.20
2022-10-22T02:27:39.007Z,13.10
2022-10-22T02:30:09.912Z,13.00
2022-10-22T02:32:42.636Z,12.90
2022-10-22T02:35:13.848Z,13.00
2022-10-22T02:37:41.760Z,12.90
2022-10-22T02:40:09.691Z,12.90
2022-10-22T02:42:38.442Z,13.00
2022-10-22T02:45:06.302Z,13.00
2022-10-22T02:47:33.359Z,13.00
2022-10-22T02:50:00.529Z,12.90
2022-10-22T02:52:27.973Z,12.90
2022-10-22T02:54:54.858Z,12.80
2022-10-22T02:59:48.839Z,12.80
2022-10-22T03:02:16.574Z,12.70
2022-10-22T03:04:43.726Z,12.60
2022-10-22T03:07:10.711Z,12.70
2022-10-22T03:09:37.628Z,12.60
2022-10-22T03:12:05.053Z,12.60
2022-10-22T03:14:31.987Z,12.60
2022-10-22T03:16:58.931Z,12.60
2022-10-22T03:19:25.948Z,12.60
2022-10-22T03:22:06.302Z,12.50
2022-10-22T03:24:40.011Z,12.60
2022-10-22T03:27:07.053Z,12.60
2022-10-22T03:29:37.463Z,12.60
2022-10-22T03:32:04.595Z,12.60
2022-10-22T03:34:31.584Z,12.60
2022-10-22T03:37:00.102Z,12.60
2022-10-22T03:39:29.419Z,12.50
2022-10-22T03:41:56.810Z,12.50
2022-10-22T03:44:24.484Z,12.50
2022-10-22T03:46:51.739Z,12.50
2022-10-22T03:49:18.660Z,12.60
2022-10-22T03:51:45.655Z,12.60
2022-10-22T03:54:12.591Z,12.50
2022-10-22T03:56:39.658Z,12.80
2022-10-22T03:59:06.799Z,12.90
2022-10-22T04:01:33.785Z,12.80
2022-10-22T04:04:00.767Z,12.70
2022-10-22T04:06:30.136Z,12.80
2022-10-22T04:08:57.453Z,12.80
2022-10-22T04:11:24.598Z,12.80
2022-10-22T04:13:51.611Z,12.90
2022-10-22T04:16:21.485Z,12.80
2022-10-22T04:18:50.512Z,12.50
2022-10-22T04:21:19.173Z,12.40
2022-10-22T04:23:47.949Z,12.20
2022-10-22T04:26:16.045Z,12.10
2022-10-22T04:28:43.246Z,12.00
2022-10-22T04:31:25.378Z,11.90
2022-10-22T04:33:57.895Z,11.90
2022-10-22T04:36:25.854Z,11.90
2022-10-22T04:38:59.130Z,11.70
2022-10-22T04:41:29.114Z,11.60
2022-10-22T04:43:56.613Z,11.50
2022-10-22T04:46:24.616Z,11.50
2022-10-22T04:48:52.516Z,11.50
2022-10-22T04:51:21.235Z,11.50
2022-10-22T04:53:48.554Z,11.50
2022-10-22T04:56:19.894Z,11.60
2022-10-22T04:58:49.110Z,11.60
2022-10-22T05:01:36.941Z,11.60
2022-10-22T05:04:08.343Z,11.50
2022-10-22T05:06:37.284Z,11.40
2022-10-22T05:09:07.110Z,11.40
2022-10-22T05:11:36.399Z,11.40
2022-10-22T05:14:06.024Z,11.30
2022-10-22T05:16:33.912Z,11.30
2022-10-22T05:19:02.291Z,11.30
2022-10-22T05:21:29.824Z,11.20
2022-10-22T05:23:59.696Z,11.30
2022-10-22T05:26:27.479Z,11.30
2022-10-22T05:28:54.560Z,11.40
2022-10-22T05:31:21.668Z,11.30
2022-10-22T05:33:48.985Z,11.20
2022-10-22T05:36:19.943Z,11.10
2022-10-22T05:38:47.168Z,11.30
2022-10-22T05:41:22.564Z,11.20
2022-10-22T05:43:50.415Z,11.00
2022-10-22T05:46:22.530Z,11.10
2022-10-22T05:48:56.130Z,10.90
2022-10-22T05:51:24.488Z,11.10
2022-10-22T05:53:54.311Z,11.00
2022-10-22T05:56:21.917Z,11.10
2022-10-22T05:58:49.189Z,11.10
2022-10-22T06:01:33.155Z,11.00
2022-10-22T06:04:02.799Z,11.00
2022-10-22T06:06:47.626Z,11.00
2022-10-22T06:12:10.936Z,11.10
2022-10-22T06:14:37.975Z,11.10
2022-10-22T06:17:04.904Z,11.00
2022-10-22T06:19:31.821Z,10.90
2022-10-22T06:21:58.882Z,10.90
2022-10-22T06:24:25.759Z,11.00
2022-10-22T06:26:52.981Z,11.00
2022-10-22T06:29:20.026Z,11.10
2022-10-22T06:31:47.096Z,11.20
2022-10-22T06:34:14.744Z,11.30
2022-10-22T06:36:43.876Z,11.40
2022-10-22T06:39:12.915Z,11.50
2022-10-22T06:41:40.231Z,11.50
2022-10-22T06:44:07.298Z,11.50
2022-10-22T06:46:34.339Z,11.60
2022-10-22T06:49:03.142Z,11.50
2022-10-22T06:51:30.305Z,11.60
2022-10-22T06:53:58.210Z,11.70
2022-10-22T06:56:27.635Z,11.70
2022-10-22T06:58:56.189Z,11.80
2022-10-22T07:01:28.973Z,11.70
2022-10-22T07:03:56.383Z,11.70
2022-10-22T07:06:24.798Z,11.70
2022-10-22T07:08:53.446Z,11.70
2022-10-22T07:11:23.196Z,11.70
2022-10-22T07:13:51.470Z,11.60
2022-10-22T07:16:18.828Z,11.50
2022-10-22T07:18:46.564Z,11.50
2022-10-22T07:21:16.064Z,11.50
2022-10-22T07:23:43.073Z,11.50
2022-10-22T07:26:13.121Z,11.60
2022-10-22T07:28:41.153Z,11.60
2022-10-22T07:31:10.385Z,11.60
2022-10-22T07:33:37.767Z,11.70
2022-10-22T07:36:08.550Z,11.80
2022-10-22T07:38:36.123Z,11.90
2022-10-22T07:41:03.469Z,11.80
2022-10-22T07:43:30.374Z,12.00
2022-10-22T07:45:57.306Z,12.10
2022-10-22T07:48:24.630Z,12.20
2022-10-22T07:50:52.120Z,12.20
2022-10-22T07:53:21.229Z,12.30
2022-10-22T07:55:49.408Z,12.40
2022-10-22T07:58:17.493Z,12.40
2022-10-22T08:00:45.260Z,13.00
2022-10-22T08:03:13.724Z,14.10
2022-10-22T08:05:43.705Z,14.30
2022-10-22T08:08:15.192Z,15.50
2022-10-22T08:10:43.166Z,17.00
2022-10-22T08:13:10.642Z,17.40
2022-10-22T08:15:38.012Z,18.00
2022-10-22T08:18:05.445Z,19.30
2022-10-22T08:20:32.650Z,20.40
2022-10-22T08:22:59.582Z,20.60
2022-10-22T08:25:27.182Z,20.70
2022-10-22T08:27:54.206Z,21.50
2022-10-22T08:30:21.353Z,22.20
2022-10-22T08:32:50.500Z,22.60
2022-10-22T08:35:20.196Z,22.40
2022-10-22T08:37:47.048Z,23.30
2022-10-22T08:40:37.567Z,24.40
2022-10-22T08:43:41.916Z,25.00
2022-10-22T08:46:46.155Z,25.60
2022-10-22T08:49:39.718Z,25.40
2022-10-22T08:52:19.970Z,26.00
2022-10-22T08:54:52.766Z,25.80
2022-10-22T08:57:49.910Z,24.60
2022-10-22T09:00:30.723Z,25.10
2022-10-22T09:03:17.044Z,25.70
2022-10-22T09:05:46.898Z,25.90
2022-10-22T09:08:17.178Z,26.00
2022-10-22T09:10:53.508Z,25.60
2022-10-22T09:13:22.565Z,25.60
2022-10-22T09:16:06.008Z,25.20
2022-10-22T09:18:39.183Z,25.40
2022-10-22T09:21:34.551Z,25.20
2022-10-22T09:24:16.630Z,25.80
2022-10-22T09:26:43.667Z,27.00
2022-10-22T09:29:25.220Z,27.70
2022-10-22T09:31:52.272Z,28.40
2022-10-22T09:34:22.082Z,29.00
2022-10-22T09:36:57.818Z,29.50
2022-10-22T09:39:26.359Z,28.90
2022-10-22T09:41:53.668Z,28.50
2022-10-22T09:44:20.606Z,29.10
2022-10-22T09:46:47.489Z,29.40
2022-10-22T09:49:19.542Z,29.50
2022-10-22T09:51:51.946Z,30.00
2022-10-22T09:54:18.937Z,29.80
2022-10-22T09:56:51.371Z,30.00
2022-10-22T09:59:19.038Z,30.00
2022-10-22T10:01:45.855Z,28.80
2022-10-22T10:04:14.559Z,27.90
2022-10-22T10:06:42.918Z,28.40
2022-10-22T10:09:17.543Z,27.10
2022-10-22T10:12:10.603Z,27.50
2022-10-22T10:14:48.001Z,27.60
2022-10-22T10:17:15.060Z,27.40
2022-10-22T10:19:44.788Z,28.70
2022-10-22T10:22:22.687Z,29.20
2022-10-22T10:25:08.585Z,28.50
2022-10-22T10:27:38.722Z,27.70
2022-10-22T10:30:05.587Z,26.90
2022-10-22T10:32:44.666Z,28.10
2022-10-22T10:35:23.884Z,27.80
2022-10-22T10:38:05.977Z,27.10
2022-10-22T10:40:56.050Z,27.70
2022-10-22T10:43:35.164Z,28.20
2022-10-22T10:46:04.781Z,29.00
2022-10-22T10:48:34.403Z,30.00
2022-10-22T10:51:07.217Z,28.80
2022-10-22T10:53:52.407Z,28.30
2022-10-22T10:56:39.301Z,28.80
2022-10-22T10:59:12.451Z,27.70
2022-10-22T11:01:45.103Z,27.50
2022-10-22T11:04:20.167Z,27.50
2022-10-22T11:06:47.152Z,27.60
2022-10-22T11:09:22.791Z,26.40
2022-10-22T11:12:01.220Z,26.50
2022-10-22T11:14:30.576Z,26.90
2022-10-22T11:17:23.764Z,25.90
2022-10-22T11:20:13.365Z,25.20
2022-10-22T11:23:00.380Z,26.40
2022-10-22T11:25:32.159Z,26.70
2022-10-22T11:28:20.172Z,26.40
2022-10-22T11:30:49.365Z,26.20
2022-10-22T11:33:19.646Z,25.10
2022-10-22T11:35:47.290Z,25.50
2022-10-22T11:38:25.482Z,27.00
2022-10-22T11:41:02.721Z,26.20
2022-10-22T11:43:31.966Z,27.00
2022-10-22T11:46:19.030Z,25.30
2022-10-22T11:49:00.842Z,25.10
2022-10-22T11:51:29.548Z,24.40
2022-10-22T11:53:57.240Z,25.10
2022-10-22T11:56:27.855Z,26.60
2022-10-22T11:58:55.643Z,27.40
2022-10-22T12:01:22.425Z,27.70
2022-10-22T12:03:52.371Z,28.50
2022-10-22T12:06:21.293Z,28.90
2022-10-22T12:08:57.451Z,28.40
2022-10-22T12:11:39.708Z,28.10
2022-10-22T12:14:23.076Z,27.80
2022-10-22T12:16:57.192Z,26.50
2022-10-22T12:19:24.395Z,26.20
2022-10-22T12:22:06.303Z,26.10
2022-10-22T12:24:44.895Z,25.20
2022-10-22T12:27:19.118Z,26.20
2022-10-22T12:29:49.777Z,27.20
2022-10-22T12:32:16.822Z,27.30
2022-10-22T12:34:47.930Z,26.60
2022-10-22T12:37:16.026Z,27.30
2022-10-22T12:39:42.919Z,28.10
2022-10-22T12:42:13.613Z,28.80
2022-10-22T12:44:40.672Z,28.10
2022-10-22T12:47:07.924Z,29.00
2022-10-22T12:49:36.643Z,30.00
2022-10-22T12:52:05.033Z,30.20
2022-10-22T12:54:33.261Z,31.50
2022-10-22T12:57:00.616Z,31.70
2022-10-22T12:59:30.506Z,31.40
2022-10-22T13:01:57.662Z,32.00
2022-10-22T13:04:37.478Z,32.40
2022-10-22T13:07:19.924Z,32.20
2022-10-22T13:10:01.054Z,32.90
2022-10-22T13:12:34.530Z,31.50
2022-10-22T13:15:18.820Z,31.00
2022-10-22T13:17:47.360Z,31.80
2022-10-22T13:20:16.355Z,30.00
2022-10-22T13:22:54.508Z,29.00
2022-10-22T13:25:23.100Z,28.70
2022-10-22T13:27:51.932Z,27.00
2022-10-22T13:30:22.077Z,25.70
2022-10-22T13:32:50.076Z,24.90
2022-10-22T13:35:18.448Z,24.40
2022-10-22T13:37:45.241Z,24.90
2022-10-22T13:40:12.954Z,25.70
2022-10-22T13:42:40.214Z,26.70
2022-10-22T13:45:07.835Z,26.90
2022-10-22T13:47:34.720Z,25.30
2022-10-22T13:50:03.349Z,26.80
2022-10-22T13:52:50.524Z,29.20
2022-10-22T13:55:19.510Z,30.00
2022-10-22T13:57:46.740Z,28.80
2022-10-22T14:00:14.712Z,28.40
2022-10-22T14:02:42.992Z,27.70
2022-10-22T14:05:11.210Z,26.80
2022-10-22T14:07:39.225Z,26.30
2022-10-22T14:10:13.138Z,25.70
2022-10-22T14:12:39.967Z,25.30
2022-10-22T14:15:07.101Z,24.80
2022-10-22T14:17:34.022Z,23.80
2022-10-22T14:20:00.914Z,22.80
2022-10-22T14:22:28.331Z,22.10
2022-10-22T14:24:55.528Z,21.70
2022-10-22T14:27:22.364Z,21.70
2022-10-22T14:29:49.143Z,21.70
2022-10-22T14:32:19.420Z,21.40
2022-10-22T14:34:46.917Z,21.40
2022-10-22T14:37:18.508Z,21.20
2022-10-22T14:39:47.138Z,21.20
2022-10-22T14:42:14.549Z,21.00
2022-10-22T14:44:41.929Z,21.00
2022-10-22T14:47:09.567Z,21.00
2022-10-22T14:49:36.391Z,20.90
2022-10-22T14:52:03.619Z,20.70
2022-10-22T14:54:30.532Z,20.70
2022-10-22T14:56:57.447Z,20.60
2022-10-22T14:59:24.828Z,20.60
2022-10-22T15:01:51.668Z,20.60
2022-10-22T15:04:22.051Z,20.50
2022-10-22T15:06:49.105Z,20.40
2022-10-22T15:09:16.004Z,20.40
2022-10-22T15:11:43.052Z,20.40
2022-10-22T15:14:10.030Z,20.60
2022-10-22T15:16:36.900Z,20.90
2022-10-22T15:19:03.839Z,20.90
2022-10-22T15:21:30.890Z,21.00
2022-10-22T15:23:57.794Z,21.10
2022-10-22T15:26:24.781Z,21.10
2022-10-22T15:28:51.671Z,21.20
2022-10-22T15:31:38.511Z,21.10
2022-10-22T15:34:06.108Z,21.20
2022-10-22T15:36:32.879Z,21.10
2022-10-22T15:39:00.116Z,20.90
2022-10-22T15:41:26.992Z,20.50
2022-10-22T15:43:53.820Z,20.20
2022-10-22T15:46:21.800Z,19.80
2022-10-22T15:48:48.635Z,19.60
2022-10-22T15:51:16.916Z,19.40
2022-10-22T15:53:43.801Z,19.00
2022-10-22T15:56:12.117Z,18.80
2022-10-22T15:58:38.987Z,18.50
2022-10-22T16:01:10.558Z,18.30
2022-10-22T16:03:37.658Z,18.20
2022-10-22T16:06:05.191Z,17.90
2022-10-22T16:08:32.671Z,17.60
2022-10-22T16:11:00.023Z,17.30
2022-10-22T16:13:27.235Z,17.00
2022-10-22T16:15:54.239Z,17.20
2022-10-22T16:18:21.621Z,17.00
2022-10-22T16:20:48.499Z,16.60
2022-10-22T16:23:19.074Z,16.40
2022-10-22T16:25:46.689Z,16.60
2022-10-22T16:28:13.832Z,16.30
2022-10-22T16:30:41.729Z,16.00
2022-10-22T16:33:09.949Z,15.90
2022-10-22T16:35:43.424Z,15.90
2022-10-22T16:38:11.101Z,15.90
2022-10-22T16:40:38.197Z,15.60
2022-10-22T16:43:05.200Z,15.30
2022-10-22T16:45:32.112Z,15.10
2022-10-22T16:47:59.492Z,14.90
2022-10-22T16:50:26.466Z,14.80
2022-10-22T16:52:53.436Z,14.60
2022-10-22T16:55:20.547Z,14.50
2022-10-22T16:57:51.971Z,14.40
2022-10-22T17:00:19.548Z,14.30
2022-10-22T17:02:50.629Z,14.20
2022-10-22T17:05:17.498Z,14.20
2022-10-22T17:07:44.484Z,14.10
2022-10-22T17:10:11.447Z,14.00
2022-10-22T17:12:38.487Z,14.30
2022-10-22T17:15:06.141Z,14.40
2022-10-22T17:17:33.294Z,14.10
2022-10-22T17:20:00.189Z,13.90
2022-10-22T17:22:27.088Z,13.90
2022-10-22T17:25:09.006Z,13.90
2022-10-22T17:27:35.835Z,14.00
2022-10-22T17:30:02.795Z,14.00
2022-10-22T17:32:29.905Z,13.90
2022-10-22T17:34:56.776Z,13.70
2022-10-22T17:37:24.241Z,13.60
2022-10-22T17:39:51.079Z,13.50
2022-10-22T17:42:18.235Z,13.90
2022-10-22T17:44:45.003Z,13.40
2022-10-22T17:47:12.000Z,13.30
2022-10-22T17:49:38.957Z,13.30
2022-10-22T17:52:05.736Z,13.30
2022-10-22T17:54:33.095Z,13.30
2022-10-22T17:56:59.939Z,13.20
2022-10-22T17:59:26.792Z,13.20
2022-10-22T18:01:56.891Z,13.20
2022-10-22T18:04:26.413Z,13.20
2022-10-22T18:06:53.212Z,13.20
2022-10-22T18:09:20.069Z,13.00
2022-10-22T18:11:47.908Z,12.90
2022-10-22T18:14:14.961Z,12.80
2022-10-22T18:16:42.089Z,12.90
2022-10-22T18:19:10.227Z,12.80
2022-10-22T18:21:37.192Z,12.70
2022-10-22T18:24:04.296Z,12.60
2022-10-22T18:26:31.343Z,12.70
2022-10-22T18:28:58.192Z,12.70
2022-10-22T18:31:26.069Z,12.60
2022-10-22T18:36:22.120Z,12.80
2022-10-22T18:38:50.492Z,12.70
2022-10-22T18:41:18.053Z,12.70
2022-10-22T18:43:45.195Z,12.50
2022-10-22T18:46:12.133Z,12.40
2022-10-22T18:48:38.963Z,12.40
2022-10-22T18:51:07.527Z,12.40
2022-10-22T18:53:35.349Z,12.40
2022-10-22T18:56:06.999Z,12.30
2022-10-22T18:58:45.439Z,12.40
2022-10-22T19:01:13.438Z,12.30
2022-10-22T19:03:40.279Z,12.30
2022-10-22T19:06:07.864Z,12.30
2022-10-22T19:08:35.629Z,12.40
2022-10-22T19:11:02.592Z,12.30
2022-10-22T19:13:29.642Z,12.30
2022-10-22T19:16:01.594Z,12.20
2022-10-22T19:18:28.435Z,12.30
2022-10-22T19:20:59.384Z,12.30
2022-10-22T19:23:26.518Z,12.40
2022-10-22T19:26:21.514Z,12.50
2022-10-22T19:28:48.459Z,12.50
2022-10-22T19:31:17.882Z,12.50
2022-10-22T19:33:44.702Z,12.40
2022-10-22T19:36:12.510Z,12.50
2022-10-22T19:38:40.470Z,12.30
2022-10-22T19:41:07.903Z,12.50
2022-10-22T19:43:34.767Z,12.40
2022-10-22T19:46:01.732Z,12.30
2022-10-22T19:48:29.913Z,12.40
2022-10-22T19:51:04.386Z,12.20
2022-10-22T19:53:32.332Z,12.10
2022-10-22T19:55:59.697Z,12.10
2022-10-22T19:58:27.221Z,12.30
2022-10-22T20:00:54.432Z,12.30
2022-10-22T20:03:21.522Z,12.30
2022-10-22T20:05:50.081Z,12.30
2022-10-22T20:08:16.871Z,12.40
2022-10-22T20:10:43.875Z,12.40
2022-10-22T20:13:10.716Z,12.20
2022-10-22T20:15:37.556Z,12.20
2022-10-22T20:18:04.456Z,12.10
2022-10-22T20:20:31.237Z,12.10
2022-10-22T20:22:58.028Z,12.10
2022-10-22T20:25:24.822Z,12.00
2022-10-22T20:27:51.720Z,12.10
2022-10-22T20:30:20.180Z,12.30
2022-10-22T20:32:48.311Z,12.20
2022-10-22T20:35:15.860Z,12.10
2022-10-22T20:37:42.652Z,12.10
2022-10-22T20:40:09.805Z,12.00
2022-10-22T20:42:36.724Z,11.90
2022-10-22T20:45:03.899Z,11.80
2022-10-22T20:47:44.304Z,11.90
2022-10-22T20:50:18.919Z,11.80
2022-10-22T20:52:45.840Z,11.80
2022-10-22T20:55:13.551Z,11.90
2022-10-22T20:57:41.265Z,12.00
2022-10-22T21:00:08.598Z,11.90
2022-10-22T21:02:35.914Z,11.80
2022-10-22T21:05:02.899Z,11.70
2022-10-22T21:07:29.763Z,11.70
2022-10-22T21:09:56.727Z,11.70
2022-10-22T21:12:23.527Z,11.70
2022-10-22T21:14:50.374Z,11.60
2022-10-22T21:17:17.216Z,11.70
2022-10-22T21:19:44.089Z,11.80
2022-10-22T21:22:10.961Z,11.80
2022-10-22T21:24:37.797Z,11.80
2022-10-22T21:27:07.415Z,11.80
2022-10-22T21:29:34.212Z,11.80
2022-10-22T21:32:01.039Z,11.90
2022-10-22T21:34:28.008Z,11.70
2022-10-22T21:36:54.957Z,11.70
2022-10-22T21:39:21.788Z,11.80
2022-10-22T21:41:48.651Z,11.50
2022-10-22T21:44:16.161Z,11.70
2022-10-22T21:46:43.128Z,11.70
2022-10-22T21:49:10.869Z,11.70
2022-10-22T21:51:38.387Z,11.60
2022-10-22T21:54:05.454Z,11.60
2022-10-22T21:56:33.451Z,11.60
2022-10-22T21:59:00.516Z,11.50
2022-10-22T22:01:27.444Z,11.40
2022-10-22T22:03:54.326Z,11.50
2022-10-22T22:06:23.089Z,11.40
2022-10-22T22:08:51.329Z,11.50
2022-10-22T22:11:19.560Z,11.40
2022-10-22T22:13:48.667Z,11.40
2022-10-22T22:16:23.806Z,11.40
2022-10-22T22:18:54.148Z,11.40
2022-10-22T22:21:21.395Z,11.30
2022-10-22T22:23:48.841Z,11.40
2022-10-22T22:26:16.800Z,11.30
2022-10-22T22:28:43.837Z,11.30
2022-10-22T22:31:22.693Z,11.30
2022-10-22T22:33:49.726Z,11.20
2022-10-22T22:36:16.542Z,11.20
2022-10-22T22:38:43.333Z,11.30
2022-10-22T22:41:10.183Z,11.30
2022-10-22T22:43:37.689Z,11.30
2022-10-22T22:46:05.981Z,11.40
2022-10-22T22:48:32.904Z,11.20
2022-10-22T22:51:00.158Z,11.10
2022-10-22T22:53:28.194Z,11.00
2022-10-22T22:56:05.515Z,11.00
2022-10-22T22:58:32.588Z,11.00
2022-10-22T23:01:11.868Z,10.90
2022-10-22T23:03:39.167Z,11.00
2022-10-22T23:06:06.156Z,11.00
2022-10-22T23:08:33.507Z,11.10
2022-10-22T23:11:04.228Z,11.10
2022-10-22T23:13:31.199Z,11.20
2022-10-22T23:15:58.064Z,11.30
2022-10-22T23:18:25.045Z,11.00
2022-10-22T23:20:52.364Z,11.00
2022-10-22T23:23:19.215Z,10.90
2022-10-22T23:25:46.089Z,10.90
2022-10-22T23:28:12.978Z,10.90
2022-10-22T23:30:44.284Z,10.90
2022-10-22T23:33:11.293Z,10.90
2022-10-22T23:35:42.000Z,11.00
2022-10-22T23:38:08.868Z,10.90
2022-10-22T23:40:35.946Z,10.80
2022-10-22T23:43:03.479Z,10.80
2022-10-22T23:45:30.423Z,10.70
2022-10-22T23:47:57.211Z,10.60
2022-10-22T23:50:24.110Z,10.60
2022-10-22T23:52:51.911Z,10.60
2022-10-22T23:55:19.288Z,10.60
2022-10-22T23:57:46.499Z,10.70
